Wetterdaten: Woche 07.12.15 - 13.12.15 (KW50)
Datum Zeit Temp. Aussen Temp. o. S. +5cm Feuchte Auss BlattFeu 1 Luftdruck Regen Sonnenschein Regendauer Solar Windben Empfang
07.12.2015 00:00 10,0 C 9,7 C 8,3 C 95 % 15 lf 1026,6 hPa 0,2 l/m 0,00 h 0,03 h 0 W/m 14,2 km/h (3 Bft) 96,71 %
07.12.2015 01:00 10,2 C 10,1 C 8,7 C 95 % 14 lf 1026,9 hPa 0,0 l/m 0,00 h 0,00 h 0 W/m 14,6 km/h (3 Bft) 95,72 %
07.12.2015 02:00 10,6 C 10,6 C 8,9 C 92 % 1 lf 1027,3 hPa 0,0 l/m 0,00 h 0,00 h 0 W/m 19,4 km/h (3 Bft) 97,37 %
07.12.2015 03:00 10,6 C 10,2 C 8,5 C 92 % 9 lf 1027,8 hPa 0,0 l/m 0,00 h 0,03 h 0 W/m 15,5 km/h (3 Bft) 95,03 %
07.12.2015 04:00 10,1 C 9,4 C 8,3 C 94 % 15 lf 1027,9 hPa 0,0 l/m 0,00 h 0,33 h 0 W/m 10,5 km/h (2 Bft) 94,95 %
07.12.2015 05:00 9,8 C 9,4 C 8,3 C 95 % 15 lf 1028,2 hPa 0,0 l/m 0,00 h 0,00 h 0 W/m 5,5 km/h (1 Bft) 98,48 %
07.12.2015 06:00 9,8 C 9,9 C 8,2 C 96 % 13 lf 1028,5 hPa 0,0 l/m 0,00 h 0,00 h 0 W/m 4,8 km/h (1 Bft) 95,96 %
07.12.2015 07:00 9,7 C 10,0 C 7,8 C 96 % 1 lf 1028,8 hPa 0,0 l/m 0,00 h 0,00 h 0 W/m 7,1 km/h (2 Bft) 93,87 %
07.12.2015 08:00 9,8 C 10,2 C 7,9 C 95 % 0 lf 1029,1 hPa 0,0 l/m 0,00 h 0,00 h 10 W/m 7,0 km/h (2 Bft) 97,94 %
07.12.2015 09:00 10,1 C 10,7 C 8,6 C 94 % 0 lf 1029,8 hPa 0,0 l/m 0,00 h 0,00 h 42 W/m 7,2 km/h (2 Bft) 96,20 %
07.12.2015 10:00 10,5 C 11,3 C 9,2 C 92 % 0 lf 1030,2 hPa 0,0 l/m 0,00 h 0,00 h 71 W/m 8,6 km/h (2 Bft) 96,79 %
07.12.2015 11:00 11,0 C 12,1 C 10,0 C 91 % 0 lf 1030,3 hPa 0,0 l/m 0,00 h 0,00 h 101 W/m 9,0 km/h (2 Bft) 94,98 %
07.12.2015 12:00 11,8 C 13,0 C 11,3 C 90 % 0 lf 1029,8 hPa 0,0 l/m 0,00 h 0,00 h 120 W/m 8,3 km/h (2 Bft) 95,34 %
07.12.2015 13:00 12,8 C 16,4 C 12,1 C 87 % 0 lf 1029,5 hPa 0,0 l/m 0,87 h 0,00 h 187 W/m 9,8 km/h (2 Bft) 96,54 %
07.12.2015 14:00 14,0 C 15,9 C 12,2 C 81 % 0 lf 1029,4 hPa 0,0 l/m 0,87 h 0,00 h 131 W/m 11,1 km/h (2 Bft) 96,43 %
07.12.2015 15:00 13,8 C 13,6 C 11,0 C 81 % 0 lf 1029,4 hPa 0,0 l/m 0,13 h 0,00 h 40 W/m 8,0 km/h (2 Bft) 94,63 %
07.12.2015 16:00 12,4 C 10,9 C 8,0 C 82 % 0 lf 1029,5 hPa 0,0 l/m 0,00 h 0,00 h 8 W/m 4,3 km/h (1 Bft) 97,23 %
07.12.2015 17:00 10,5 C 8,9 C 6,5 C 85 % 1 lf 1029,5 hPa 0,0 l/m 0,00 h 0,00 h 0 W/m 5,0 km/h (1 Bft) 98,00 %
07.12.2015 18:00 10,0 C 10,6 C 8,1 C 90 % 0 lf 1029,4 hPa 0,0 l/m 0,00 h 0,00 h 0 W/m 11,9 km/h (2 Bft) 91,96 %
07.12.2015 19:00 10,3 C 10,6 C 8,6 C 89 % 0 lf 1029,5 hPa 0,0 l/m 0,00 h 0,00 h 0 W/m 11,1 km/h (2 Bft) 97,54 %
07.12.2015 20:00 10,3 C 10,5 C 8,8 C 90 % 0 lf 1029,5 hPa 0,0 l/m 0,00 h 0,00 h 0 W/m 9,1 km/h (2 Bft) 97,67 %
07.12.2015 21:00 10,5 C 11,0 C 9,2 C 90 % 0 lf 1029,4 hPa 0,0 l/m 0,00 h 0,00 h 0 W/m 16,0 km/h (3 Bft) 94,47 %
07.12.2015 22:00 10,6 C 10,7 C 9,1 C 89 % 0 lf 1029,4 hPa 0,0 l/m 0,00 h 0,00 h 0 W/m 17,7 km/h (3 Bft) 95,98 %
07.12.2015 23:00 10,3 C 10,5 C 8,7 C 89 % 0 lf 1029,4 hPa 0,0 l/m 0,00 h 0,00 h 0 W/m 12,8 km/h (3 Bft) 96,96 %
08.12.2015 00:00 10,2 C 10,3 C 8,6 C 89 % 0 lf 1029,3 hPa 0,0 l/m 0,00 h 0,00 h 0 W/m 13,9 km/h (3 Bft) 91,62 %
08.12.2015 01:00 10,0 C 10,0 C 8,4 C 90 % 0 lf 1029,0 hPa 0,0 l/m 0,00 h 0,00 h 0 W/m 16,4 km/h (3 Bft) 93,48 %
08.12.2015 02:00 9,4 C 9,1 C 7,4 C 90 % 0 lf 1028,8 hPa 0,0 l/m 0,00 h 0,00 h 0 W/m 14,9 km/h (3 Bft) 92,17 %
08.12.2015 03:00 8,8 C 8,9 C 7,2 C 91 % 0 lf 1028,6 hPa 0,0 l/m 0,00 h 0,00 h 0 W/m 18,3 km/h (3 Bft) 91,81 %
08.12.2015 04:00 8,5 C 8,5 C 7,0 C 91 % 0 lf 1028,4 hPa 0,0 l/m 0,00 h 0,00 h 0 W/m 13,3 km/h (3 Bft) 95,38 %
08.12.2015 05:00 8,1 C 7,8 C 6,1 C 92 % 0 lf 1028,3 hPa 0,0 l/m 0,00 h 0,00 h 0 W/m 13,2 km/h (3 Bft) 95,32 %
08.12.2015 06:00 7,7 C 7,8 C 6,1 C 93 % 0 lf 1028,2 hPa 0,0 l/m 0,00 h 0,00 h 0 W/m 16,7 km/h (3 Bft) 94,79 %
08.12.2015 07:00 7,6 C 7,8 C 6,1 C 93 % 0 lf 1027,9 hPa 0,0 l/m 0,00 h 0,00 h 0 W/m 18,5 km/h (3 Bft) 97,11 %
08.12.2015 08:00 7,7 C 7,8 C 6,1 C 93 % 0 lf 1027,8 hPa 0,0 l/m 0,00 h 0,00 h 12 W/m 19,8 km/h (4 Bft) 96,76 %
08.12.2015 09:00 8,0 C 8,5 C 6,9 C 92 % 0 lf 1027,8 hPa 0,0 l/m 0,27 h 0,00 h 60 W/m 21,7 km/h (4 Bft) 94,81 %
08.12.2015 10:00 8,9 C 10,5 C 7,9 C 91 % 0 lf 1027,9 hPa 0,0 l/m 1,00 h 0,00 h 147 W/m 21,2 km/h (4 Bft) 95,67 %
08.12.2015 11:00 10,6 C 14,5 C 9,1 C 86 % 0 lf 1027,6 hPa 0,0 l/m 1,00 h 0,00 h 213 W/m 19,8 km/h (3 Bft) 94,25 %
08.12.2015 12:00 12,2 C 15,7 C 10,6 C 82 % 0 lf 1027,1 hPa 0,0 l/m 1,00 h 0,00 h 226 W/m 16,2 km/h (3 Bft) 96,18 %
08.12.2015 13:00 13,6 C 17,1 C 11,7 C 77 % 0 lf 1026,4 hPa 0,0 l/m 1,00 h 0,00 h 191 W/m 17,8 km/h (3 Bft) 98,23 %
08.12.2015 14:00 13,8 C 14,7 C 11,6 C 76 % 0 lf 1025,7 hPa 0,0 l/m 0,13 h 0,00 h 92 W/m 17,9 km/h (3 Bft) 95,65 %
08.12.2015 15:00 12,9 C 12,6 C 10,4 C 81 % 0 lf 1025,4 hPa 0,0 l/m 0,00 h 0,00 h 34 W/m 11,3 km/h (2 Bft) 95,31 %
08.12.2015 16:00 11,6 C 11,5 C 9,4 C 83 % 0 lf 1025,3 hPa 0,0 l/m 0,00 h 0,00 h 9 W/m 10,7 km/h (2 Bft) 94,66 %
08.12.2015 17:00 11,5 C 11,7 C 9,9 C 83 % 0 lf 1025,4 hPa 0,0 l/m 0,00 h 0,00 h 0 W/m 13,2 km/h (3 Bft) 97,87 %
08.12.2015 18:00 11,3 C 11,6 C 9,6 C 83 % 0 lf 1025,7 hPa 0,0 l/m 0,00 h 0,00 h 0 W/m 10,6 km/h (2 Bft) 95,63 %
08.12.2015 19:00 11,1 C 10,1 C 8,7 C 86 % 2 lf 1025,9 hPa 0,6 l/m 0,00 h 0,80 h 0 W/m 7,8 km/h (2 Bft) 94,27 %
08.12.2015 20:00 10,7 C 9,9 C 8,7 C 91 % 15 lf 1026,2 hPa 1,0 l/m 0,00 h 1,00 h 0 W/m 11,2 km/h (2 Bft) 96,90 %
08.12.2015 21:00 10,9 C 10,6 C 8,9 C 95 % 15 lf 1026,5 hPa 0,4 l/m 0,00 h 1,00 h 0 W/m 18,4 km/h (3 Bft) 96,58 %
08.12.2015 22:00 10,8 C 10,6 C 8,9 C 96 % 15 lf 1026,9 hPa 0,8 l/m 0,00 h 1,00 h 0 W/m 18,7 km/h (3 Bft) 95,74 %
08.12.2015 23:00 10,6 C 10,1 C 8,9 C 96 % 15 lf 1027,5 hPa 0,8 l/m 0,00 h 1,00 h 0 W/m 21,4 km/h (4 Bft) 96,06 %
09.12.2015 00:00 10,3 C 10,0 C 8,8 C 97 % 15 lf 1028,1 hPa 0,4 l/m 0,00 h 0,32 h 0 W/m 19,8 km/h (3 Bft) 95,24 %
09.12.2015 01:00 9,9 C 9,6 C 8,2 C 97 % 15 lf 1028,3 hPa 0,0 l/m 0,00 h 0,00 h 0 W/m 17,3 km/h (3 Bft) 96,35 %
09.12.2015 02:00 9,2 C 8,6 C 7,2 C 96 % 15 lf 1028,9 hPa 0,0 l/m 0,00 h 0,00 h 0 W/m 16,1 km/h (3 Bft) 97,10 %
09.12.2015 03:00 8,5 C 7,9 C 6,7 C 96 % 15 lf 1029,4 hPa 0,0 l/m 0,00 h 0,00 h 0 W/m 18,4 km/h (3 Bft) 94,85 %
09.12.2015 04:00 8,3 C 7,9 C 6,7 C 95 % 15 lf 1029,9 hPa 0,0 l/m 0,00 h 0,00 h 0 W/m 21,4 km/h (4 Bft) 96,07 %
09.12.2015 05:00 8,1 C 7,4 C 6,1 C 94 % 12 lf 1030,8 hPa 0,0 l/m 0,00 h 0,00 h 0 W/m 15,8 km/h (3 Bft) 96,65 %
09.12.2015 06:00 7,3 C 6,5 C 5,2 C 94 % 11 lf 1031,8 hPa 0,0 l/m 0,00 h 0,00 h 0 W/m 12,3 km/h (3 Bft) 97,96 %
09.12.2015 07:00 6,8 C 6,1 C 4,8 C 95 % 12 lf 1032,8 hPa 0,0 l/m 0,00 h 0,00 h 0 W/m 11,3 km/h (2 Bft) 92,94 %
09.12.2015 08:00 6,2 C 5,9 C 4,4 C 95 % 12 lf 1033,8 hPa 0,0 l/m 0,03 h 0,00 h 13 W/m 12,1 km/h (2 Bft) 96,37 %
09.12.2015 09:00 6,1 C 6,3 C 4,6 C 95 % 10 lf 1034,7 hPa 0,0 l/m 0,33 h 0,00 h 62 W/m 13,4 km/h (3 Bft) 97,51 %
09.12.2015 10:00 6,6 C 8,8 C 5,9 C 96 % 1 lf 1035,6 hPa 0,0 l/m 0,93 h 0,00 h 146 W/m 16,1 km/h (3 Bft) 96,16 %
09.12.2015 11:00 7,7 C 15,5 C 6,6 C 95 % 0 lf 1036,0 hPa 0,0 l/m 1,00 h 0,00 h 216 W/m 15,9 km/h (3 Bft) 93,46 %
09.12.2015 12:00 8,9 C 14,6 C 7,3 C 90 % 0 lf 1036,1 hPa 0,0 l/m 0,97 h 0,00 h 235 W/m 14,5 km/h (3 Bft) 95,95 %
09.12.2015 13:00 9,3 C 13,9 C 7,8 C 86 % 0 lf 1036,2 hPa 0,0 l/m 0,53 h 0,00 h 154 W/m 13,5 km/h (3 Bft) 96,45 %
09.12.2015 14:00 9,6 C 12,1 C 7,9 C 83 % 0 lf 1036,2 hPa 0,0 l/m 0,93 h 0,00 h 147 W/m 17,6 km/h (3 Bft) 97,93 %
09.12.2015 15:00 8,8 C 8,7 C 6,7 C 84 % 0 lf 1036,5 hPa 0,0 l/m 0,00 h 0,00 h 44 W/m 13,9 km/h (3 Bft) 95,05 %
09.12.2015 16:00 7,6 C 6,6 C 4,9 C 86 % 0 lf 1036,8 hPa 0,0 l/m 0,17 h 0,00 h 11 W/m 8,9 km/h (2 Bft) 95,65 %
09.12.2015 17:00 6,8 C 6,5 C 4,8 C 88 % 0 lf 1036,8 hPa 0,0 l/m 0,00 h 0,00 h 7 W/m 10,4 km/h (2 Bft) 97,30 %
09.12.2015 18:00 6,2 C 6,0 C 4,3 C 90 % 0 lf 1036,6 hPa 0,0 l/m 0,00 h 0,00 h 9 W/m 12,1 km/h (2 Bft) 93,38 %
09.12.2015 19:00 6,1 C 5,9 C 4,3 C 91 % 0 lf 1036,7 hPa 0,0 l/m 0,00 h 0,00 h 9 W/m 13,3 km/h (3 Bft) 98,00 %
09.12.2015 20:00 5,7 C 5,6 C 3,9 C 91 % 0 lf 1036,5 hPa 0,0 l/m 0,00 h 0,00 h 9 W/m 14,0 km/h (3 Bft) 96,51 %
09.12.2015 21:00 5,4 C 5,6 C 3,9 C 92 % 0 lf 1036,7 hPa 0,0 l/m 0,00 h 0,00 h 8 W/m 17,8 km/h (3 Bft) 93,02 %
09.12.2015 22:00 5,3 C 5,2 C 3,7 C 92 % 0 lf 1036,6 hPa 0,0 l/m 0,00 h 0,00 h 7 W/m 16,2 km/h (3 Bft) 97,01 %
09.12.2015 23:00 5,0 C 5,0 C 3,5 C 92 % 0 lf 1036,3 hPa 0,0 l/m 0,00 h 0,00 h 9 W/m 15,7 km/h (3 Bft) 97,86 %
10.12.2015 00:00 4,8 C 4,7 C 3,3 C 92 % 0 lf 1036,1 hPa 0,0 l/m 0,00 h 0,00 h 9 W/m 15,3 km/h (3 Bft) 94,73 %
10.12.2015 01:00 4,5 C 4,4 C 2,9 C 92 % 0 lf 1035,7 hPa 0,0 l/m 0,00 h 0,00 h 9 W/m 14,1 km/h (3 Bft) 95,51 %
10.12.2015 02:00 4,2 C 4,3 C 2,8 C 92 % 0 lf 1035,1 hPa 0,0 l/m 0,00 h 0,00 h 9 W/m 14,9 km/h (3 Bft) 96,01 %
10.12.2015 03:00 3,8 C 3,6 C 2,0 C 91 % 0 lf 1034,7 hPa 0,0 l/m 0,00 h 0,00 h 9 W/m 10,8 km/h (2 Bft) 96,72 %
10.12.2015 04:00 3,2 C 3,0 C 1,1 C 92 % 0 lf 1034,3 hPa 0,0 l/m 0,00 h 0,00 h 18 W/m 8,4 km/h (2 Bft) 96,43 %
10.12.2015 05:00 2,6 C 2,7 C 0,9 C 92 % 0 lf 1033,9 hPa 0,2 l/m 0,00 h 0,00 h 23 W/m 9,5 km/h (2 Bft) 96,08 %
10.12.2015 06:00 2,3 C 2,5 C 0,9 C 93 % 0 lf 1033,5 hPa 0,0 l/m 0,00 h 0,00 h 18 W/m 9,7 km/h (2 Bft) 95,52 %
10.12.2015 07:00 2,2 C 2,1 C 0,5 C 93 % 0 lf 1033,4 hPa 0,0 l/m 0,00 h 0,00 h 19 W/m 8,3 km/h (2 Bft) 95,45 %
10.12.2015 08:00 1,9 C 2,2 C 0,7 C 94 % 0 lf 1033,3 hPa 0,0 l/m 0,30 h 0,00 h 34 W/m 9,2 km/h (2 Bft) 98,22 %
10.12.2015 09:00 2,4 C 3,4 C 1,8 C 94 % 0 lf 1033,1 hPa 0,0 l/m 0,73 h 0,00 h 75 W/m 13,8 km/h (3 Bft) 93,52 %
10.12.2015 10:00 3,5 C 5,7 C 3,1 C 92 % 0 lf 1033,1 hPa 0,0 l/m 1,00 h 0,00 h 179 W/m 15,7 km/h (3 Bft) 96,23 %
10.12.2015 11:00 5,9 C 9,7 C 4,9 C 84 % 0 lf 1032,4 hPa 0,0 l/m 1,00 h 0,00 h 216 W/m 15,7 km/h (3 Bft) 97,94 %
10.12.2015 12:00 7,5 C 11,3 C 6,5 C 78 % 0 lf 1031,5 hPa 0,0 l/m 0,93 h 0,00 h 249 W/m 16,6 km/h (3 Bft) 93,96 %
10.12.2015 13:00 8,7 C 13,1 C 6,7 C 70 % 0 lf 1030,7 hPa 0,0 l/m 1,00 h 0,00 h 280 W/m 23,4 km/h (4 Bft) 96,23 %
10.12.2015 14:00 8,8 C 10,9 C 6,7 C 69 % 0 lf 1029,9 hPa 0,0 l/m 1,00 h 0,00 h 205 W/m 20,4 km/h (4 Bft) 94,23 %
10.12.2015 15:00 8,1 C 8,2 C 5,9 C 70 % 0 lf 1029,4 hPa 0,0 l/m 1,00 h 0,00 h 130 W/m 18,9 km/h (3 Bft) 95,79 %
10.12.2015 16:00 7,2 C 6,8 C 4,6 C 74 % 0 lf 1028,9 hPa 0,0 l/m 0,23 h 0,00 h 23 W/m 14,6 km/h (3 Bft) 97,72 %
10.12.2015 17:00 6,3 C 6,2 C 4,3 C 77 % 0 lf 1028,3 hPa 0,0 l/m 0,00 h 0,00 h 34 W/m 18,9 km/h (3 Bft) 94,81 %
10.12.2015 18:00 5,6 C 5,3 C 3,6 C 80 % 0 lf 1027,8 hPa 0,0 l/m 0,00 h 0,00 h 36 W/m 14,2 km/h (3 Bft) 96,80 %
10.12.2015 19:00 4,5 C 4,3 C 2,7 C 83 % 0 lf 1027,3 hPa 0,0 l/m 0,00 h 0,00 h 20 W/m 12,9 km/h (3 Bft) 94,69 %
10.12.2015 20:00 3,8 C 3,9 C 2,2 C 86 % 0 lf 1026,7 hPa 0,0 l/m 0,00 h 0,00 h 14 W/m 12,8 km/h (3 Bft) 95,52 %
10.12.2015 21:00 3,4 C 3,5 C 2,0 C 86 % 0 lf 1026,5 hPa 0,0 l/m 0,00 h 0,00 h 14 W/m 11,1 km/h (2 Bft) 98,08 %
10.12.2015 22:00 3,1 C 3,3 C 1,7 C 86 % 0 lf 1026,1 hPa 0,0 l/m 0,00 h 0,00 h 13 W/m 12,2 km/h (2 Bft) 95,44 %
10.12.2015 23:00 3,0 C 3,3 C 1,8 C 86 % 0 lf 1025,7 hPa 0,0 l/m 0,00 h 0,00 h 11 W/m 12,3 km/h (3 Bft) 94,39 %
11.12.2015 00:00 2,8 C 2,8 C 1,4 C 86 % 0 lf 1025,2 hPa 0,0 l/m 0,00 h 0,00 h 11 W/m 12,6 km/h (3 Bft) 96,35 %
11.12.2015 01:00 2,6 C 3,1 C 1,9 C 88 % 0 lf 1024,8 hPa 0,0 l/m 0,00 h 0,00 h 11 W/m 10,6 km/h (2 Bft) 97,65 %
11.12.2015 02:00 2,9 C 3,3 C 2,1 C 88 % 0 lf 1024,3 hPa 0,0 l/m 0,00 h 0,00 h 11 W/m 11,4 km/h (2 Bft) 95,18 %
11.12.2015 03:00 3,3 C 3,9 C 2,6 C 89 % 1 lf 1024,0 hPa 0,0 l/m 0,00 h 0,17 h 11 W/m 11,2 km/h (2 Bft) 95,19 %
11.12.2015 04:00 5,1 C 5,1 C 3,4 C 90 % 11 lf 1023,6 hPa 0,6 l/m 0,00 h 0,83 h 12 W/m 18,5 km/h (3 Bft) 96,84 %
11.12.2015 05:00 5,2 C 4,4 C 3,3 C 92 % 15 lf 1023,6 hPa 0,8 l/m 0,00 h 1,00 h 12 W/m 22,1 km/h (4 Bft) 96,23 %
11.12.2015 06:00 5,0 C 4,6 C 3,4 C 94 % 15 lf 1022,9 hPa 0,6 l/m 0,00 h 0,93 h 12 W/m 23,4 km/h (4 Bft) 96,08 %
11.12.2015 07:00 5,2 C 5,1 C 3,9 C 95 % 15 lf 1022,4 hPa 0,2 l/m 0,00 h 0,97 h 12 W/m 19,9 km/h (4 Bft) 96,37 %
11.12.2015 08:00 5,7 C 5,6 C 4,2 C 95 % 15 lf 1022,8 hPa 0,6 l/m 0,00 h 0,97 h 14 W/m 24,4 km/h (4 Bft) 94,21 %
11.12.2015 09:00 5,9 C 5,6 C 4,4 C 96 % 15 lf 1022,8 hPa 1,4 l/m 0,00 h 1,00 h 16 W/m 30,5 km/h (5 Bft) 97,20 %
11.12.2015 10:00 6,1 C 6,0 C 4,7 C 96 % 15 lf 1022,5 hPa 0,4 l/m 0,00 h 1,00 h 46 W/m 30,9 km/h (5 Bft) 97,43 %
11.12.2015 11:00 6,5 C 6,3 C 5,0 C 96 % 15 lf 1022,6 hPa 0,2 l/m 0,00 h 1,00 h 57 W/m 28,8 km/h (5 Bft) 92,38 %
11.12.2015 12:00 6,7 C 6,7 C 5,4 C 96 % 15 lf 1022,2 hPa 0,2 l/m 0,00 h 0,97 h 70 W/m 31,2 km/h (5 Bft) 96,93 %
11.12.2015 13:00 7,0 C 6,7 C 5,6 C 96 % 15 lf 1022,1 hPa 0,6 l/m 0,00 h 1,00 h 63 W/m 29,8 km/h (5 Bft) 96,87 %
11.12.2015 14:00 7,1 C 6,7 C 5,6 C 96 % 15 lf 1021,8 hPa 0,0 l/m 0,00 h 0,97 h 56 W/m 28,3 km/h (4 Bft) 95,30 %
11.12.2015 15:00 7,2 C 6,9 C 5,6 C 96 % 14 lf 1021,7 hPa 0,0 l/m 0,00 h 0,67 h 40 W/m 31,0 km/h (5 Bft) 96,09 %
11.12.2015 16:00 7,2 C 6,7 C 5,4 C 94 % 6 lf 1021,6 hPa 0,0 l/m 0,00 h 0,47 h 6 W/m 26,1 km/h (4 Bft) 96,01 %
11.12.2015 17:00 7,2 C 6,7 C 5,5 C 94 % 11 lf 1021,5 hPa 0,4 l/m 0,00 h 1,00 h 2 W/m 24,5 km/h (4 Bft) 94,87 %
11.12.2015 18:00 6,9 C 6,7 C 5,6 C 95 % 14 lf 1021,2 hPa 0,4 l/m 0,00 h 0,97 h 2 W/m 22,1 km/h (4 Bft) 98,01 %
11.12.2015 19:00 6,9 C 6,7 C 5,6 C 96 % 15 lf 1020,7 hPa 0,6 l/m 0,00 h 1,00 h 4 W/m 23,4 km/h (4 Bft) 95,52 %
11.12.2015 20:00 7,1 C 7,0 C 5,6 C 97 % 15 lf 1020,2 hPa 0,6 l/m 0,00 h 0,97 h 13 W/m 25,0 km/h (4 Bft) 93,80 %
11.12.2015 21:00 7,5 C 7,4 C 6,1 C 97 % 15 lf 1020,3 hPa 0,0 l/m 0,00 h 0,43 h 2 W/m 24,4 km/h (4 Bft) 98,07 %
11.12.2015 22:00 7,6 C 7,4 C 6,1 C 97 % 15 lf 1020,8 hPa 0,2 l/m 0,00 h 0,93 h 2 W/m 22,4 km/h (4 Bft) 95,59 %
11.12.2015 23:00 7,2 C 6,8 C 5,5 C 97 % 15 lf 1021,1 hPa 0,0 l/m 0,00 h 0,13 h 2 W/m 16,2 km/h (3 Bft) 96,01 %
12.12.2015 00:00 6,7 C 6,0 C 4,5 C 96 % 15 lf 1021,7 hPa 0,0 l/m 0,00 h 0,00 h 2 W/m 12,8 km/h (3 Bft) 95,58 %
12.12.2015 01:00 5,9 C 5,1 C 3,9 C 95 % 15 lf 1021,9 hPa 0,0 l/m 0,00 h 0,17 h 2 W/m 12,8 km/h (3 Bft) 95,94 %
12.12.2015 02:00 5,4 C 4,7 C 3,3 C 96 % 15 lf 1021,9 hPa 0,0 l/m 0,00 h 0,10 h 17 W/m 8,7 km/h (2 Bft) 95,59 %
12.12.2015 03:00 5,1 C 4,7 C 3,3 C 96 % 15 lf 1022,0 hPa 0,0 l/m 0,00 h 0,10 h 18 W/m 9,7 km/h (2 Bft) 97,29 %
12.12.2015 04:00 4,9 C 4,3 C 3,1 C 96 % 15 lf 1022,1 hPa 0,0 l/m 0,00 h 0,07 h 18 W/m 9,4 km/h (2 Bft) 94,63 %
12.12.2015 05:00 4,8 C 4,4 C 3,0 C 97 % 15 lf 1022,2 hPa 0,0 l/m 0,00 h 0,03 h 18 W/m 8,1 km/h (2 Bft) 97,08 %
12.12.2015 06:00 4,5 C 4,4 C 3,1 C 97 % 15 lf 1022,4 hPa 0,0 l/m 0,00 h 0,00 h 14 W/m 8,5 km/h (2 Bft) 96,12 %
12.12.2015 07:00 4,7 C 4,4 C 3,3 C 97 % 15 lf 1022,8 hPa 0,2 l/m 0,00 h 0,00 h 10 W/m 8,3 km/h (2 Bft) 98,44 %
12.12.2015 08:00 4,8 C 4,7 C 3,4 C 97 % 15 lf 1022,9 hPa 0,0 l/m 0,00 h 0,03 h 15 W/m 9,4 km/h (2 Bft) 93,73 %
12.12.2015 09:00 4,9 C 5,1 C 3,9 C 97 % 15 lf 1023,4 hPa 0,0 l/m 0,17 h 0,00 h 50 W/m 9,6 km/h (2 Bft) 95,73 %
12.12.2015 10:00 5,6 C 6,2 C 4,8 C 98 % 15 lf 1023,5 hPa 0,0 l/m 0,30 h 0,03 h 95 W/m 13,6 km/h (3 Bft) 97,65 %
12.12.2015 11:00 6,5 C 7,3 C 5,7 C 98 % 10 lf 1023,2 hPa 0,0 l/m 0,00 h 0,00 h 96 W/m 13,3 km/h (3 Bft) 95,87 %
12.12.2015 12:00 7,2 C 8,1 C 6,2 C 97 % 1 lf 1022,4 hPa 0,0 l/m 0,10 h 0,00 h 119 W/m 14,0 km/h (3 Bft) 95,34 %
12.12.2015 13:00 8,0 C 8,7 C 6,7 C 94 % 0 lf 1022,0 hPa 0,0 l/m 0,03 h 0,00 h 92 W/m 11,0 km/h (2 Bft) 96,59 %
12.12.2015 14:00 8,4 C 9,2 C 6,8 C 92 % 0 lf 1021,2 hPa 0,0 l/m 0,03 h 0,00 h 71 W/m 10,8 km/h (2 Bft) 95,16 %
12.12.2015 15:00 8,6 C 9,1 C 7,0 C 90 % 0 lf 1020,3 hPa 0,0 l/m 0,23 h 0,00 h 42 W/m 14,6 km/h (3 Bft) 96,58 %
12.12.2015 16:00 8,7 C 8,9 C 7,2 C 90 % 0 lf 1019,5 hPa 0,0 l/m 0,00 h 0,00 h 5 W/m 14,4 km/h (3 Bft) 95,66 %
12.12.2015 17:00 8,9 C 9,2 C 7,5 C 93 % 0 lf 1018,5 hPa 0,0 l/m 0,00 h 0,00 h 0 W/m 16,7 km/h (3 Bft) 94,66 %
12.12.2015 18:00 9,5 C 10,0 C 8,2 C 93 % 0 lf 1017,8 hPa 0,0 l/m 0,00 h 0,00 h 0 W/m 23,7 km/h (4 Bft) 98,56 %
12.12.2015 19:00 10,1 C 10,6 C 8,9 C 92 % 0 lf 1017,0 hPa 0,0 l/m 0,00 h 0,00 h 0 W/m 29,4 km/h (5 Bft) 96,58 %
12.12.2015 20:00 10,3 C 10,6 C 8,7 C 91 % 0 lf 1016,2 hPa 0,0 l/m 0,00 h 0,00 h 0 W/m 28,9 km/h (5 Bft) 93,29 %
12.12.2015 21:00 10,4 C 10,6 C 8,9 C 90 % 0 lf 1015,8 hPa 0,0 l/m 0,00 h 0,00 h 0 W/m 33,3 km/h (5 Bft) 97,58 %
12.12.2015 22:00 10,6 C 10,8 C 9,1 C 88 % 0 lf 1015,3 hPa 0,0 l/m 0,00 h 0,00 h 0 W/m 40,5 km/h (6 Bft) 96,73 %
12.12.2015 23:00 10,5 C 10,6 C 8,9 C 86 % 0 lf 1015,2 hPa 0,0 l/m 0,00 h 0,00 h 0 W/m 41,1 km/h (6 Bft) 95,09 %
13.12.2015 00:00 10,4 C 10,6 C 8,9 C 86 % 0 lf 1014,9 hPa 0,0 l/m 0,00 h 0,00 h 0 W/m 38,5 km/h (5 Bft) 93,58 %
13.12.2015 01:00 10,4 C 10,6 C 8,9 C 86 % 0 lf 1014,4 hPa 0,0 l/m 0,00 h 0,00 h 0 W/m 43,4 km/h (6 Bft) 95,66 %
13.12.2015 02:00 10,3 C 10,6 C 8,9 C 86 % 0 lf 1014,3 hPa 0,0 l/m 0,00 h 0,00 h 0 W/m 40,7 km/h (6 Bft) 96,30 %
13.12.2015 03:00 10,3 C 10,1 C 8,5 C 87 % 6 lf 1014,3 hPa 0,0 l/m 0,00 h 0,47 h 0 W/m 39,5 km/h (6 Bft) 97,43 %
13.12.2015 04:00 9,8 C 9,8 C 8,0 C 90 % 10 lf 1014,3 hPa 0,0 l/m 0,00 h 0,97 h 0 W/m 35,2 km/h (5 Bft) 93,96 %
13.12.2015 05:00 9,6 C 9,2 C 7,9 C 92 % 13 lf 1014,9 hPa 0,2 l/m 0,00 h 0,87 h 0 W/m 30,3 km/h (5 Bft) 96,55 %
13.12.2015 06:00 8,9 C 8,3 C 7,1 C 95 % 15 lf 1016,0 hPa 1,0 l/m 0,00 h 0,97 h 0 W/m 20,2 km/h (4 Bft) 97,86 %
13.12.2015 07:00 7,3 C 6,8 C 5,7 C 95 % 15 lf 1017,2 hPa 0,6 l/m 0,00 h 1,00 h 0 W/m 15,4 km/h (3 Bft) 94,45 %
13.12.2015 08:00 6,8 C 6,7 C 5,6 C 95 % 15 lf 1018,2 hPa 0,4 l/m 0,00 h 1,00 h 7 W/m 5,4 km/h (1 Bft) 94,10 %
13.12.2015 09:00 6,8 C 6,9 C 5,8 C 96 % 15 lf 1019,2 hPa 0,6 l/m 0,00 h 1,00 h 32 W/m 4,9 km/h (1 Bft) 98,08 %
13.12.2015 10:00 7,2 C 7,7 C 6,3 C 96 % 15 lf 1020,0 hPa 0,2 l/m 0,00 h 0,70 h 66 W/m 5,9 km/h (2 Bft) 94,23 %
13.12.2015 11:00 7,4 C 8,0 C 6,5 C 97 % 15 lf 1020,4 hPa 0,0 l/m 0,00 h 0,57 h 78 W/m 7,1 km/h (2 Bft) 97,58 %
13.12.2015 12:00 7,6 C 7,9 C 6,6 C 97 % 15 lf 1020,6 hPa 0,2 l/m 0,00 h 0,87 h 63 W/m 4,8 km/h (1 Bft) 94,51 %
13.12.2015 13:00 7,7 C 8,5 C 6,8 C 97 % 15 lf 1020,7 hPa 0,0 l/m 0,20 h 0,47 h 115 W/m 6,2 km/h (2 Bft) 95,33 %
13.12.2015 14:00 7,8 C 7,9 C 6,5 C 97 % 13 lf 1020,8 hPa 0,0 l/m 0,00 h 0,10 h 51 W/m 6,0 km/h (2 Bft) 96,81 %
13.12.2015 15:00 7,5 C 7,3 C 6,1 C 96 % 12 lf 1020,9 hPa 0,0 l/m 0,00 h 0,03 h 21 W/m 8,1 km/h (2 Bft) 96,57 %
13.12.2015 16:00 7,2 C 6,8 C 5,7 C 96 % 13 lf 1021,1 hPa 0,0 l/m 0,00 h 0,13 h 6 W/m 6,4 km/h (2 Bft) 93,77 %
13.12.2015 17:00 6,8 C 6,7 C 5,6 C 96 % 14 lf 1021,3 hPa 0,0 l/m 0,00 h 0,03 h 0 W/m 5,9 km/h (2 Bft) 96,90 %
13.12.2015 18:00 6,7 C 6,7 C 5,6 C 96 % 15 lf 1021,5 hPa 0,2 l/m 0,00 h 0,10 h 0 W/m 10,1 km/h (2 Bft) 96,88 %
13.12.2015 19:00 6,6 C 6,7 C 5,6 C 97 % 15 lf 1021,6 hPa 0,0 l/m 0,00 h 0,52 h 0 W/m 9,1 km/h (2 Bft) 97,15 %
13.12.2015 20:00 6,6 C 6,7 C 5,6 C 97 % 15 lf 1021,6 hPa 0,2 l/m 0,00 h 0,10 h 0 W/m 8,4 km/h (2 Bft) 95,30 %
13.12.2015 21:00 6,7 C 6,7 C 5,6 C 98 % 15 lf 1021,5 hPa 0,0 l/m 0,00 h 0,00 h 0 W/m 6,6 km/h (2 Bft) 95,09 %
13.12.2015 22:00 6,8 C 6,7 C 5,6 C 98 % 15 lf 1021,4 hPa 0,0 l/m 0,00 h 0,03 h 0 W/m 7,4 km/h (2 Bft) 97,65 %
13.12.2015 23:00 6,8 C 6,7 C 5,6 C 98 % 15 lf 1021,3 hPa 0,0 l/m 0,00 h 0,00 h 0 W/m 7,5 km/h (2 Bft) 95,65 %
Min-Datum _ 10.12.15 10.12.15 10.12.15 10.12.15 07.12.15 13.12.15 - - - - 13.12.15 13.12.15
_ Min-Zeit 08:04 07:36 07:44 13:28 02:16 02:10 - - - - 08:34 00:02
Minimum _ 1,8 C 1,7 C 0,0 C 69 % 0 lf 1014,1 hPa - - - - 0,0 km/h (0 Bft) 12,50 %
Max-Datum _ 07.12.15 07.12.15 07.12.15 12.12.15 07.12.15 09.12.15 11.12.15 07.12.15 07.12.15 10.12.15 13.12.15 07.12.15
_ Max-Zeit 14:38 13:56 13:02 09:40 00:00 16:48 09:04 13:00 00:00 12:48 01:06 00:05
Maximum _ 14,2 C 18,9 C 12,2 C 98 % 15 lf 1037,0 hPa 1,4 l/m 0,03 h 0,03 h 392 W/m 62,8 km/h
W-SW (8 Bft)
100,00 %
Durchschnitt _ 7,8 C 8,1 C 6,2 C 91 % 6 lf 1026,2 hPa #16,0 l/m #19:26 h #33:24 h 56 W/m 15,8 km/h (3 Bft) 95,89 %
© 2015 W. Hausmann